sensor_id;sensor_type;location;lat;lon;timestamp;temperature;humidity
70534;SHT31;58088;51.186;17.130;2023-07-22T00:00:04;19.28;68.04
70534;SHT31;58088;51.186;17.130;2023-07-22T00:02:31;19.24;67.91
70534;SHT31;58088;51.186;17.130;2023-07-22T00:04:57;19.18;67.97
70534;SHT31;58088;51.186;17.130;2023-07-22T00:07:23;19.13;67.99
70534;SHT31;58088;51.186;17.130;2023-07-22T00:09:49;19.09;67.76
70534;SHT31;58088;51.186;17.130;2023-07-22T00:12:16;19.03;67.65
70534;SHT31;58088;51.186;17.130;2023-07-22T00:14:42;18.97;67.64
70534;SHT31;58088;51.186;17.130;2023-07-22T00:17:08;18.91;67.65
70534;SHT31;58088;51.186;17.130;2023-07-22T00:19:35;18.83;67.69
70534;SHT31;58088;51.186;17.130;2023-07-22T00:22:02;18.79;67.83
70534;SHT31;58088;51.186;17.130;2023-07-22T00:24:28;18.77;67.96
70534;SHT31;58088;51.186;17.130;2023-07-22T00:26:54;18.77;68.06
70534;SHT31;58088;51.186;17.130;2023-07-22T00:29:21;18.72;67.88
70534;SHT31;58088;51.186;17.130;2023-07-22T00:31:47;18.67;67.87
70534;SHT31;58088;51.186;17.130;2023-07-22T00:34:13;18.61;68.12
70534;SHT31;58088;51.186;17.130;2023-07-22T00:36:39;18.56;68.27
70534;SHT31;58088;51.186;17.130;2023-07-22T00:39:05;18.51;68.44
70534;SHT31;58088;51.186;17.130;2023-07-22T00:41:31;18.48;68.52
70534;SHT31;58088;51.186;17.130;2023-07-22T00:43:57;18.42;68.49
70534;SHT31;58088;51.186;17.130;2023-07-22T00:46:24;18.40;68.55
70534;SHT31;58088;51.186;17.130;2023-07-22T00:48:50;18.35;68.81
70534;SHT31;58088;51.186;17.130;2023-07-22T00:51:17;18.32;68.78
70534;SHT31;58088;51.186;17.130;2023-07-22T00:53:45;18.31;68.89
70534;SHT31;58088;51.186;17.130;2023-07-22T00:56:11;18.30;68.91
70534;SHT31;58088;51.186;17.130;2023-07-22T00:58:39;18.30;68.88
70534;SHT31;58088;51.186;17.130;2023-07-22T01:01:06;18.31;68.88
70534;SHT31;58088;51.186;17.130;2023-07-22T01:03:33;18.29;68.95
70534;SHT31;58088;51.186;17.130;2023-07-22T01:06:00;18.29;69.10
70534;SHT31;58088;51.186;17.130;2023-07-22T01:08:28;18.29;69.07
70534;SHT31;58088;51.186;17.130;2023-07-22T01:10:55;18.27;69.12
70534;SHT31;58088;51.186;17.130;2023-07-22T01:13:21;18.23;69.20
70534;SHT31;58088;51.186;17.130;2023-07-22T01:15:47;18.18;69.31
70534;SHT31;58088;51.186;17.130;2023-07-22T01:18:14;18.13;69.40
70534;SHT31;58088;51.186;17.130;2023-07-22T01:20:41;18.09;69.53
70534;SHT31;58088;51.186;17.130;2023-07-22T01:23:09;18.05;69.49
70534;SHT31;58088;51.186;17.130;2023-07-22T01:25:35;18.02;69.53
70534;SHT31;58088;51.186;17.130;2023-07-22T01:28:01;17.96;69.67
70534;SHT31;58088;51.186;17.130;2023-07-22T01:30:27;17.91;69.80
70534;SHT31;58088;51.186;17.130;2023-07-22T01:32:53;17.85;69.96
70534;SHT31;58088;51.186;17.130;2023-07-22T01:35:20;17.80;69.95
70534;SHT31;58088;51.186;17.130;2023-07-22T01:37:46;17.73;70.00
70534;SHT31;58088;51.186;17.130;2023-07-22T01:40:12;17.70;70.08
70534;SHT31;58088;51.186;17.130;2023-07-22T01:42:40;17.66;70.25
70534;SHT31;58088;51.186;17.130;2023-07-22T01:45:07;17.61;70.44
70534;SHT31;58088;51.186;17.130;2023-07-22T01:47:35;17.58;70.50
70534;SHT31;58088;51.186;17.130;2023-07-22T01:50:02;17.55;70.58
70534;SHT31;58088;51.186;17.130;2023-07-22T01:52:29;17.53;70.70
70534;SHT31;58088;51.186;17.130;2023-07-22T01:54:56;17.50;70.76
70534;SHT31;58088;51.186;17.130;2023-07-22T01:57:22;17.49;70.88
70534;SHT31;58088;51.186;17.130;2023-07-22T01:59:48;17.47;70.96
70534;SHT31;58088;51.186;17.130;2023-07-22T02:02:15;17.45;70.89
70534;SHT31;58088;51.186;17.130;2023-07-22T02:05:00;17.44;70.96
70534;SHT31;58088;51.186;17.130;2023-07-22T02:07:26;17.40;70.81
70534;SHT31;58088;51.186;17.130;2023-07-22T02:09:54;17.34;71.03
70534;SHT31;58088;51.186;17.130;2023-07-22T02:12:20;17.29;71.17
70534;SHT31;58088;51.186;17.130;2023-07-22T02:14:46;17.26;71.17
70534;SHT31;58088;51.186;17.130;2023-07-22T02:17:12;17.21;71.17
70534;SHT31;58088;51.186;17.130;2023-07-22T02:19:38;17.19;71.15
70534;SHT31;58088;51.186;17.130;2023-07-22T02:22:05;17.15;71.33
70534;SHT31;58088;51.186;17.130;2023-07-22T02:24:31;17.10;71.27
70534;SHT31;58088;51.186;17.130;2023-07-22T02:26:57;17.07;71.45
70534;SHT31;58088;51.186;17.130;2023-07-22T02:29:23;17.02;71.50
70534;SHT31;58088;51.186;17.130;2023-07-22T02:31:49;17.00;71.63
70534;SHT31;58088;51.186;17.130;2023-07-22T02:34:16;16.99;71.76
70534;SHT31;58088;51.186;17.130;2023-07-22T02:36:42;16.98;71.82
70534;SHT31;58088;51.186;17.130;2023-07-22T02:39:08;16.97;71.93
70534;SHT31;58088;51.186;17.130;2023-07-22T02:41:37;16.95;72.06
70534;SHT31;58088;51.186;17.130;2023-07-22T02:44:03;16.94;72.19
70534;SHT31;58088;51.186;17.130;2023-07-22T02:46:29;16.96;72.09
70534;SHT31;58088;51.186;17.130;2023-07-22T02:48:55;16.98;72.20
70534;SHT31;58088;51.186;17.130;2023-07-22T02:51:21;16.98;72.31
70534;SHT31;58088;51.186;17.130;2023-07-22T02:53:47;17.01;72.41
70534;SHT31;58088;51.186;17.130;2023-07-22T02:56:13;17.03;72.30
70534;SHT31;58088;51.186;17.130;2023-07-22T02:58:40;17.08;72.44
70534;SHT31;58088;51.186;17.130;2023-07-22T03:01:07;17.11;72.39
70534;SHT31;58088;51.186;17.130;2023-07-22T03:03:36;17.14;72.51
70534;SHT31;58088;51.186;17.130;2023-07-22T03:06:03;17.16;72.54
70534;SHT31;58088;51.186;17.130;2023-07-22T03:08:30;17.18;72.51
70534;SHT31;58088;51.186;17.130;2023-07-22T03:10:57;17.19;72.54
70534;SHT31;58088;51.186;17.130;2023-07-22T03:13:23;17.22;72.52
70534;SHT31;58088;51.186;17.130;2023-07-22T03:15:50;17.25;72.63
70534;SHT31;58088;51.186;17.130;2023-07-22T03:18:16;17.29;72.65
70534;SHT31;58088;51.186;17.130;2023-07-22T03:20:42;17.32;72.55
70534;SHT31;58088;51.186;17.130;2023-07-22T03:23:08;17.35;72.49
70534;SHT31;58088;51.186;17.130;2023-07-22T03:25:35;17.37;72.51
70534;SHT31;58088;51.186;17.130;2023-07-22T03:28:02;17.41;72.55
70534;SHT31;58088;51.186;17.130;2023-07-22T03:30:31;17.46;72.61
70534;SHT31;58088;51.186;17.130;2023-07-22T03:32:59;17.50;72.64
70534;SHT31;58088;51.186;17.130;2023-07-22T03:35:27;17.54;72.59
70534;SHT31;58088;51.186;17.130;2023-07-22T03:37:53;17.56;72.44
70534;SHT31;58088;51.186;17.130;2023-07-22T03:40:20;17.58;72.41
70534;SHT31;58088;51.186;17.130;2023-07-22T03:42:48;17.59;72.35
70534;SHT31;58088;51.186;17.130;2023-07-22T03:45:17;17.63;72.31
70534;SHT31;58088;51.186;17.130;2023-07-22T03:47:44;17.65;72.24
70534;SHT31;58088;51.186;17.130;2023-07-22T03:50:13;17.70;72.04
70534;SHT31;58088;51.186;17.130;2023-07-22T03:52:39;17.73;72.08
70534;SHT31;58088;51.186;17.130;2023-07-22T03:55:05;17.81;71.94
70534;SHT31;58088;51.186;17.130;2023-07-22T03:57:32;18.10;71.53
70534;SHT31;58088;51.186;17.130;2023-07-22T03:59:59;18.57;71.02
70534;SHT31;58088;51.186;17.130;2023-07-22T04:02:26;19.10;70.15
70534;SHT31;58088;51.186;17.130;2023-07-22T04:04:55;19.62;69.18
70534;SHT31;58088;51.186;17.130;2023-07-22T04:07:22;20.10;67.95
70534;SHT31;58088;51.186;17.130;2023-07-22T04:09:49;20.37;66.97
70534;SHT31;58088;51.186;17.130;2023-07-22T04:12:15;20.55;66.29
70534;SHT31;58088;51.186;17.130;2023-07-22T04:14:42;20.88;65.57
70534;SHT31;58088;51.186;17.130;2023-07-22T04:17:08;21.26;64.77
70534;SHT31;58088;51.186;17.130;2023-07-22T04:19:34;21.66;63.92
70534;SHT31;58088;51.186;17.130;2023-07-22T04:22:01;22.07;63.06
70534;SHT31;58088;51.186;17.130;2023-07-22T04:24:30;22.50;61.93
70534;SHT31;58088;51.186;17.130;2023-07-22T04:26:59;22.86;60.96
70534;SHT31;58088;51.186;17.130;2023-07-22T04:29:27;23.19;60.10
70534;SHT31;58088;51.186;17.130;2023-07-22T04:31:57;23.52;59.25
70534;SHT31;58088;51.186;17.130;2023-07-22T04:34:28;23.90;58.25
70534;SHT31;58088;51.186;17.130;2023-07-22T04:36:55;24.23;57.21
70534;SHT31;58088;51.186;17.130;2023-07-22T04:39:22;24.54;56.57
70534;SHT31;58088;51.186;17.130;2023-07-22T04:41:49;24.81;55.77
70534;SHT31;58088;51.186;17.130;2023-07-22T04:44:15;25.09;54.93
70534;SHT31;58088;51.186;17.130;2023-07-22T04:46:41;25.29;54.11
70534;SHT31;58088;51.186;17.130;2023-07-22T04:49:07;25.56;53.43
70534;SHT31;58088;51.186;17.130;2023-07-22T04:51:34;25.82;52.72
70534;SHT31;58088;51.186;17.130;2023-07-22T04:54:00;26.07;52.21
70534;SHT31;58088;51.186;17.130;2023-07-22T04:56:26;26.22;51.60
70534;SHT31;58088;51.186;17.130;2023-07-22T04:58:53;26.19;51.16
70534;SHT31;58088;51.186;17.130;2023-07-22T05:01:19;26.20;50.85
70534;SHT31;58088;51.186;17.130;2023-07-22T05:03:46;26.29;50.32
70534;SHT31;58088;51.186;17.130;2023-07-22T05:06:12;26.32;49.87
70534;SHT31;58088;51.186;17.130;2023-07-22T05:08:38;26.24;49.39
70534;SHT31;58088;51.186;17.130;2023-07-22T05:11:06;26.22;49.32
70534;SHT31;58088;51.186;17.130;2023-07-22T05:13:33;26.44;48.93
70534;SHT31;58088;51.186;17.130;2023-07-22T05:15:59;26.69;48.58
70534;SHT31;58088;51.186;17.130;2023-07-22T05:18:25;26.88;48.01
70534;SHT31;58088;51.186;17.130;2023-07-22T05:20:51;26.73;47.29
70534;SHT31;58088;51.186;17.130;2023-07-22T05:23:17;26.47;47.24
70534;SHT31;58088;51.186;17.130;2023-07-22T05:25:44;26.18;47.24
70534;SHT31;58088;51.186;17.130;2023-07-22T05:28:17;26.15;47.47
70534;SHT31;58088;51.186;17.130;2023-07-22T05:30:43;26.27;47.33
70534;SHT31;58088;51.186;17.130;2023-07-22T05:33:10;26.45;47.02
70534;SHT31;58088;51.186;17.130;2023-07-22T05:35:36;26.45;46.87
70534;SHT31;58088;51.186;17.130;2023-07-22T05:38:03;26.50;46.58
70534;SHT31;58088;51.186;17.130;2023-07-22T05:40:29;26.40;46.43
70534;SHT31;58088;51.186;17.130;2023-07-22T05:42:56;26.36;46.35
70534;SHT31;58088;51.186;17.130;2023-07-22T05:45:22;26.24;46.36
70534;SHT31;58088;51.186;17.130;2023-07-22T05:47:48;26.18;46.27
70534;SHT31;58088;51.186;17.130;2023-07-22T05:50:14;26.18;46.42
70534;SHT31;58088;51.186;17.130;2023-07-22T05:52:40;26.22;46.27
70534;SHT31;58088;51.186;17.130;2023-07-22T05:55:07;26.31;46.24
70534;SHT31;58088;51.186;17.130;2023-07-22T05:57:34;26.59;46.02
70534;SHT31;58088;51.186;17.130;2023-07-22T06:00:00;26.70;45.31
70534;SHT31;58088;51.186;17.130;2023-07-22T06:02:37;26.51;45.37
70534;SHT31;58088;51.186;17.130;2023-07-22T06:05:04;26.68;45.36
70534;SHT31;58088;51.186;17.130;2023-07-22T06:07:30;26.64;44.95
70534;SHT31;58088;51.186;17.130;2023-07-22T06:09:56;26.62;44.99
70534;SHT31;58088;51.186;17.130;2023-07-22T06:12:22;26.73;45.05
70534;SHT31;58088;51.186;17.130;2023-07-22T06:14:49;26.89;44.65
70534;SHT31;58088;51.186;17.130;2023-07-22T06:17:15;26.77;44.20
70534;SHT31;58088;51.186;17.130;2023-07-22T06:19:41;26.64;44.53
70534;SHT31;58088;51.186;17.130;2023-07-22T06:22:07;26.72;44.53
70534;SHT31;58088;51.186;17.130;2023-07-22T06:24:34;26.82;44.42
70534;SHT31;58088;51.186;17.130;2023-07-22T06:27:00;26.88;44.44
70534;SHT31;58088;51.186;17.130;2023-07-22T06:29:26;26.92;44.26
70534;SHT31;58088;51.186;17.130;2023-07-22T06:31:52;26.87;44.08
70534;SHT31;58088;51.186;17.130;2023-07-22T06:34:18;26.92;44.37
70534;SHT31;58088;51.186;17.130;2023-07-22T06:36:44;27.02;44.43
70534;SHT31;58088;51.186;17.130;2023-07-22T06:39:11;27.11;44.52
70534;SHT31;58088;51.186;17.130;2023-07-22T06:41:37;27.25;44.43
70534;SHT31;58088;51.186;17.130;2023-07-22T06:44:05;27.41;43.91
70534;SHT31;58088;51.186;17.130;2023-07-22T06:46:31;27.55;43.52
70534;SHT31;58088;51.186;17.130;2023-07-22T06:48:57;27.60;42.91
70534;SHT31;58088;51.186;17.130;2023-07-22T06:51:25;27.71;43.18
70534;SHT31;58088;51.186;17.130;2023-07-22T06:53:51;27.59;42.98
70534;SHT31;58088;51.186;17.130;2023-07-22T06:56:17;27.27;43.10
70534;SHT31;58088;51.186;17.130;2023-07-22T06:58:44;27.17;43.34
70534;SHT31;58088;51.186;17.130;2023-07-22T07:01:10;27.04;43.78
70534;SHT31;58088;51.186;17.130;2023-07-22T07:03:36;26.66;44.01
70534;SHT31;58088;51.186;17.130;2023-07-22T07:06:02;26.24;44.13
70534;SHT31;58088;51.186;17.130;2023-07-22T07:08:29;26.04;44.62
70534;SHT31;58088;51.186;17.130;2023-07-22T07:10:55;25.99;44.76
70534;SHT31;58088;51.186;17.130;2023-07-22T07:13:22;25.63;45.26
70534;SHT31;58088;51.186;17.130;2023-07-22T07:15:48;25.59;45.65
70534;SHT31;58088;51.186;17.130;2023-07-22T07:18:14;25.41;45.78
70534;SHT31;58088;51.186;17.130;2023-07-22T07:20:41;25.19;45.74
70534;SHT31;58088;51.186;17.130;2023-07-22T07:23:07;25.16;46.21
70534;SHT31;58088;51.186;17.130;2023-07-22T07:25:34;25.31;45.85
70534;SHT31;58088;51.186;17.130;2023-07-22T07:28:00;25.07;45.67
70534;SHT31;58088;51.186;17.130;2023-07-22T07:30:26;24.85;46.33
70534;SHT31;58088;51.186;17.130;2023-07-22T07:32:52;24.77;46.55
70534;SHT31;58088;51.186;17.130;2023-07-22T07:35:19;24.72;46.53
70534;SHT31;58088;51.186;17.130;2023-07-22T07:37:45;24.68;46.84
70534;SHT31;58088;51.186;17.130;2023-07-22T07:40:11;24.69;46.90
70534;SHT31;58088;51.186;17.130;2023-07-22T07:42:38;24.66;46.81
70534;SHT31;58088;51.186;17.130;2023-07-22T07:45:04;24.68;46.71
70534;SHT31;58088;51.186;17.130;2023-07-22T07:47:32;24.74;46.61
70534;SHT31;58088;51.186;17.130;2023-07-22T07:49:58;24.99;46.31
70534;SHT31;58088;51.186;17.130;2023-07-22T07:52:24;25.22;46.11
70534;SHT31;58088;51.186;17.130;2023-07-22T07:54:50;25.52;45.59
70534;SHT31;58088;51.186;17.130;2023-07-22T07:57:16;25.77;44.71
70534;SHT31;58088;51.186;17.130;2023-07-22T07:59:42;25.80;44.44
70534;SHT31;58088;51.186;17.130;2023-07-22T08:02:09;25.90;44.67
70534;SHT31;58088;51.186;17.130;2023-07-22T08:04:35;26.06;44.19
70534;SHT31;58088;51.186;17.130;2023-07-22T08:07:02;25.85;43.43
70534;SHT31;58088;51.186;17.130;2023-07-22T08:09:31;25.63;43.51
70534;SHT31;58088;51.186;17.130;2023-07-22T08:11:58;25.57;43.66
70534;SHT31;58088;51.186;17.130;2023-07-22T08:14:24;25.57;43.94
70534;SHT31;58088;51.186;17.130;2023-07-22T08:16:51;25.74;43.51
70534;SHT31;58088;51.186;17.130;2023-07-22T08:19:17;25.86;43.52
70534;SHT31;58088;51.186;17.130;2023-07-22T08:21:43;25.85;43.81
70534;SHT31;58088;51.186;17.130;2023-07-22T08:24:09;25.98;43.72
70534;SHT31;58088;51.186;17.130;2023-07-22T08:26:36;26.04;43.59
70534;SHT31;58088;51.186;17.130;2023-07-22T08:29:02;26.00;42.63
70534;SHT31;58088;51.186;17.130;2023-07-22T08:31:28;25.97;43.19
70534;SHT31;58088;51.186;17.130;2023-07-22T08:33:55;26.05;43.48
70534;SHT31;58088;51.186;17.130;2023-07-22T08:36:22;26.01;43.12
70534;SHT31;58088;51.186;17.130;2023-07-22T08:38:48;26.05;43.17
70534;SHT31;58088;51.186;17.130;2023-07-22T08:41:14;25.97;43.50
70534;SHT31;58088;51.186;17.130;2023-07-22T08:43:41;25.77;43.46
70534;SHT31;58088;51.186;17.130;2023-07-22T08:46:13;25.73;43.68
70534;SHT31;58088;51.186;17.130;2023-07-22T08:48:42;25.81;43.65
70534;SHT31;58088;51.186;17.130;2023-07-22T08:51:19;25.86;43.78
70534;SHT31;58088;51.186;17.130;2023-07-22T08:53:49;25.92;43.72
70534;SHT31;58088;51.186;17.130;2023-07-22T08:56:16;25.93;43.57
70534;SHT31;58088;51.186;17.130;2023-07-22T08:58:43;26.02;43.36
70534;SHT31;58088;51.186;17.130;2023-07-22T09:01:11;25.90;42.60
70534;SHT31;58088;51.186;17.130;2023-07-22T09:03:38;25.74;42.54
70534;SHT31;58088;51.186;17.130;2023-07-22T09:06:07;25.70;42.97
70534;SHT31;58088;51.186;17.130;2023-07-22T09:08:33;25.76;42.34
70534;SHT31;58088;51.186;17.130;2023-07-22T09:11:00;25.53;41.97
70534;SHT31;58088;51.186;17.130;2023-07-22T09:13:28;25.28;41.78
70534;SHT31;58088;51.186;17.130;2023-07-22T09:15:57;25.16;42.24
70534;SHT31;58088;51.186;17.130;2023-07-22T09:18:24;25.30;42.41
70534;SHT31;58088;51.186;17.130;2023-07-22T09:20:51;25.50;41.94
70534;SHT31;58088;51.186;17.130;2023-07-22T09:23:18;25.63;42.06
70534;SHT31;58088;51.186;17.130;2023-07-22T09:26:07;25.83;42.01
70534;SHT31;58088;51.186;17.130;2023-07-22T09:28:56;25.88;41.88
70534;SHT31;58088;51.186;17.130;2023-07-22T09:31:25;25.80;41.24
70534;SHT31;58088;51.186;17.130;2023-07-22T09:33:56;25.63;41.12
70534;SHT31;58088;51.186;17.130;2023-07-22T09:36:52;25.31;41.31
70534;SHT31;58088;51.186;17.130;2023-07-22T09:39:21;25.28;41.46
70534;SHT31;58088;51.186;17.130;2023-07-22T09:41:49;25.29;41.32
70534;SHT31;58088;51.186;17.130;2023-07-22T09:44:18;25.41;41.58
70534;SHT31;58088;51.186;17.130;2023-07-22T09:46:48;25.59;41.09
70534;SHT31;58088;51.186;17.130;2023-07-22T09:49:16;25.75;41.35
70534;SHT31;58088;51.186;17.130;2023-07-22T09:51:44;25.91;41.43
70534;SHT31;58088;51.186;17.130;2023-07-22T09:54:10;26.04;41.47
70534;SHT31;58088;51.186;17.130;2023-07-22T09:56:55;26.10;41.17
70534;SHT31;58088;51.186;17.130;2023-07-22T09:59:21;25.95;41.16
70534;SHT31;58088;51.186;17.130;2023-07-22T10:01:48;25.70;40.90
70534;SHT31;58088;51.186;17.130;2023-07-22T10:04:17;25.50;41.27
70534;SHT31;58088;51.186;17.130;2023-07-22T10:06:48;25.57;40.32
70534;SHT31;58088;51.186;17.130;2023-07-22T10:09:16;25.57;40.14
70534;SHT31;58088;51.186;17.130;2023-07-22T10:11:45;25.78;40.41
70534;SHT31;58088;51.186;17.130;2023-07-22T10:14:12;25.93;39.26
70534;SHT31;58088;51.186;17.130;2023-07-22T10:16:40;25.95;38.78
70534;SHT31;58088;51.186;17.130;2023-07-22T10:19:07;25.85;38.99
70534;SHT31;58088;51.186;17.130;2023-07-22T10:21:36;25.82;38.88
70534;SHT31;58088;51.186;17.130;2023-07-22T10:24:04;25.90;38.91
70534;SHT31;58088;51.186;17.130;2023-07-22T10:26:33;25.96;38.62
70534;SHT31;58088;51.186;17.130;2023-07-22T10:29:00;26.18;38.82
70534;SHT31;58088;51.186;17.130;2023-07-22T10:31:29;26.32;38.26
70534;SHT31;58088;51.186;17.130;2023-07-22T10:33:57;26.36;37.46
70534;SHT31;58088;51.186;17.130;2023-07-22T10:36:23;26.30;37.07
70534;SHT31;58088;51.186;17.130;2023-07-22T10:38:56;26.22;36.93
70534;SHT31;58088;51.186;17.130;2023-07-22T10:41:23;26.29;36.49
70534;SHT31;58088;51.186;17.130;2023-07-22T10:43:56;26.22;36.57
70534;SHT31;58088;51.186;17.130;2023-07-22T10:46:32;26.17;37.26
70534;SHT31;58088;51.186;17.130;2023-07-22T10:49:12;26.41;38.04
70534;SHT31;58088;51.186;17.130;2023-07-22T10:51:47;26.50;37.72
70534;SHT31;58088;51.186;17.130;2023-07-22T10:54:15;26.38;37.30
70534;SHT31;58088;51.186;17.130;2023-07-22T10:59:49;26.44;37.84
70534;SHT31;58088;51.186;17.130;2023-07-22T11:02:23;26.63;36.28
70534;SHT31;58088;51.186;17.130;2023-07-22T11:04:58;26.77;35.91
70534;SHT31;58088;51.186;17.130;2023-07-22T11:07:42;26.99;35.36
70534;SHT31;58088;51.186;17.130;2023-07-22T11:10:14;27.22;35.37
70534;SHT31;58088;51.186;17.130;2023-07-22T11:12:43;27.17;34.64
70534;SHT31;58088;51.186;17.130;2023-07-22T11:15:11;26.95;34.71
70534;SHT31;58088;51.186;17.130;2023-07-22T11:17:42;26.70;34.89
70534;SHT31;58088;51.186;17.130;2023-07-22T11:20:08;26.46;34.91
70534;SHT31;58088;51.186;17.130;2023-07-22T11:22:35;26.29;35.28
70534;SHT31;58088;51.186;17.130;2023-07-22T11:25:06;26.16;35.44
70534;SHT31;58088;51.186;17.130;2023-07-22T11:27:34;26.05;35.52
70534;SHT31;58088;51.186;17.130;2023-07-22T11:30:02;26.04;35.89
70534;SHT31;58088;51.186;17.130;2023-07-22T11:32:29;26.04;35.51
70534;SHT31;58088;51.186;17.130;2023-07-22T11:34:55;26.20;35.33
70534;SHT31;58088;51.186;17.130;2023-07-22T11:37:22;26.30;35.20
70534;SHT31;58088;51.186;17.130;2023-07-22T11:39:48;26.18;35.36
70534;SHT31;58088;51.186;17.130;2023-07-22T11:42:15;26.06;36.32
70534;SHT31;58088;51.186;17.130;2023-07-22T11:44:42;26.00;36.57
70534;SHT31;58088;51.186;17.130;2023-07-22T11:47:08;25.86;36.48
70534;SHT31;58088;51.186;17.130;2023-07-22T11:49:36;25.72;36.68
70534;SHT31;58088;51.186;17.130;2023-07-22T11:52:04;25.66;36.97
70534;SHT31;58088;51.186;17.130;2023-07-22T11:54:33;25.70;37.35
70534;SHT31;58088;51.186;17.130;2023-07-22T11:57:19;25.74;36.73
70534;SHT31;58088;51.186;17.130;2023-07-22T11:59:51;25.92;36.08
70534;SHT31;58088;51.186;17.130;2023-07-22T12:02:23;26.14;36.36
70534;SHT31;58088;51.186;17.130;2023-07-22T12:05:03;26.37;36.06
70534;SHT31;58088;51.186;17.130;2023-07-22T12:07:32;26.54;35.70
70534;SHT31;58088;51.186;17.130;2023-07-22T12:10:02;26.60;34.72
70534;SHT31;58088;51.186;17.130;2023-07-22T12:17:47;26.64;35.44
70534;SHT31;58088;51.186;17.130;2023-07-22T12:20:17;26.67;34.91
70534;SHT31;58088;51.186;17.130;2023-07-22T12:22:44;26.76;34.44
70534;SHT31;58088;51.186;17.130;2023-07-22T12:25:11;26.93;34.56
70534;SHT31;58088;51.186;17.130;2023-07-22T12:27:37;27.03;33.27
70534;SHT31;58088;51.186;17.130;2023-07-22T12:30:04;27.05;33.56
70534;SHT31;58088;51.186;17.130;2023-07-22T12:32:33;26.99;33.09
70534;SHT31;58088;51.186;17.130;2023-07-22T12:35:00;26.92;33.42
70534;SHT31;58088;51.186;17.130;2023-07-22T12:37:26;26.79;33.39
70534;SHT31;58088;51.186;17.130;2023-07-22T12:39:54;26.76;33.43
70534;SHT31;58088;51.186;17.130;2023-07-22T12:42:20;26.70;33.46
70534;SHT31;58088;51.186;17.130;2023-07-22T12:44:46;26.66;34.01
70534;SHT31;58088;51.186;17.130;2023-07-22T12:47:12;26.53;33.26
70534;SHT31;58088;51.186;17.130;2023-07-22T12:49:38;26.45;32.69
70534;SHT31;58088;51.186;17.130;2023-07-22T12:52:04;26.51;32.67
70534;SHT31;58088;51.186;17.130;2023-07-22T12:54:37;26.68;32.86
70534;SHT31;58088;51.186;17.130;2023-07-22T12:57:04;26.84;32.44
70534;SHT31;58088;51.186;17.130;2023-07-22T12:59:31;26.87;31.90
70534;SHT31;58088;51.186;17.130;2023-07-22T13:01:57;26.80;31.55
70534;SHT31;58088;51.186;17.130;2023-07-22T13:04:24;26.67;31.34
70534;SHT31;58088;51.186;17.130;2023-07-22T13:06:50;26.58;31.58
70534;SHT31;58088;51.186;17.130;2023-07-22T13:09:17;26.66;32.07
70534;SHT31;58088;51.186;17.130;2023-07-22T13:11:44;26.81;31.78
70534;SHT31;58088;51.186;17.130;2023-07-22T13:14:11;26.84;30.93
70534;SHT31;58088;51.186;17.130;2023-07-22T13:16:37;26.85;31.14
70534;SHT31;58088;51.186;17.130;2023-07-22T13:19:03;27.00;31.44
70534;SHT31;58088;51.186;17.130;2023-07-22T13:21:30;27.18;31.42
70534;SHT31;58088;51.186;17.130;2023-07-22T13:23:56;27.40;31.97
70534;SHT31;58088;51.186;17.130;2023-07-22T13:26:23;27.42;30.80
70534;SHT31;58088;51.186;17.130;2023-07-22T13:28:49;27.32;31.65
70534;SHT31;58088;51.186;17.130;2023-07-22T13:31:15;27.44;32.38
70534;SHT31;58088;51.186;17.130;2023-07-22T13:33:41;27.61;32.36
70534;SHT31;58088;51.186;17.130;2023-07-22T13:36:08;27.70;31.11
70534;SHT31;58088;51.186;17.130;2023-07-22T13:38:34;27.73;31.17
70534;SHT31;58088;51.186;17.130;2023-07-22T13:41:00;27.61;30.66
70534;SHT31;58088;51.186;17.130;2023-07-22T13:43:27;27.47;30.81
70534;SHT31;58088;51.186;17.130;2023-07-22T13:45:54;27.45;31.19
70534;SHT31;58088;51.186;17.130;2023-07-22T13:48:20;27.38;30.84
70534;SHT31;58088;51.186;17.130;2023-07-22T13:51:05;27.07;30.14
70534;SHT31;58088;51.186;17.130;2023-07-22T13:53:32;26.96;30.65
70534;SHT31;58088;51.186;17.130;2023-07-22T13:55:58;27.00;30.97
70534;SHT31;58088;51.186;17.130;2023-07-22T13:58:24;26.95;31.11
70534;SHT31;58088;51.186;17.130;2023-07-22T14:00:50;26.88;31.81
70534;SHT31;58088;51.186;17.130;2023-07-22T14:03:17;26.82;31.95
70534;SHT31;58088;51.186;17.130;2023-07-22T14:05:43;26.72;32.19
70534;SHT31;58088;51.186;17.130;2023-07-22T14:08:09;26.67;32.24
70534;SHT31;58088;51.186;17.130;2023-07-22T14:10:35;26.54;32.18
70534;SHT31;58088;51.186;17.130;2023-07-22T14:13:01;26.42;32.47
70534;SHT31;58088;51.186;17.130;2023-07-22T14:15:28;26.36;32.86
70534;SHT31;58088;51.186;17.130;2023-07-22T14:17:55;26.34;32.61
70534;SHT31;58088;51.186;17.130;2023-07-22T14:20:21;26.26;31.92
70534;SHT31;58088;51.186;17.130;2023-07-22T14:22:47;26.12;31.85
70534;SHT31;58088;51.186;17.130;2023-07-22T14:25:15;26.13;32.49
70534;SHT31;58088;51.186;17.130;2023-07-22T14:27:42;26.17;32.84
70534;SHT31;58088;51.186;17.130;2023-07-22T14:30:09;26.18;32.88
70534;SHT31;58088;51.186;17.130;2023-07-22T14:32:35;26.18;32.75
70534;SHT31;58088;51.186;17.130;2023-07-22T14:35:03;26.15;32.90
70534;SHT31;58088;51.186;17.130;2023-07-22T14:37:31;26.13;32.90
70534;SHT31;58088;51.186;17.130;2023-07-22T14:39:57;26.13;32.86
70534;SHT31;58088;51.186;17.130;2023-07-22T14:42:24;26.14;32.50
70534;SHT31;58088;51.186;17.130;2023-07-22T14:44:50;26.11;32.52
70534;SHT31;58088;51.186;17.130;2023-07-22T14:47:16;26.06;32.39
70534;SHT31;58088;51.186;17.130;2023-07-22T14:49:42;26.01;32.51
70534;SHT31;58088;51.186;17.130;2023-07-22T14:52:09;26.06;32.77
70534;SHT31;58088;51.186;17.130;2023-07-22T14:54:35;26.11;33.01
70534;SHT31;58088;51.186;17.130;2023-07-22T14:57:02;26.12;32.62
70534;SHT31;58088;51.186;17.130;2023-07-22T14:59:29;26.06;32.41
70534;SHT31;58088;51.186;17.130;2023-07-22T15:01:55;25.98;32.38
70534;SHT31;58088;51.186;17.130;2023-07-22T15:04:21;25.91;32.27
70534;SHT31;58088;51.186;17.130;2023-07-22T15:06:48;25.89;32.49
70534;SHT31;58088;51.186;17.130;2023-07-22T15:09:15;25.89;32.96
70534;SHT31;58088;51.186;17.130;2023-07-22T15:11:41;25.97;33.17
70534;SHT31;58088;51.186;17.130;2023-07-22T15:14:07;26.07;33.27
70534;SHT31;58088;51.186;17.130;2023-07-22T15:16:34;26.11;32.98
70534;SHT31;58088;51.186;17.130;2023-07-22T15:19:00;26.18;33.00
70534;SHT31;58088;51.186;17.130;2023-07-22T15:21:26;26.28;32.82
70534;SHT31;58088;51.186;17.130;2023-07-22T15:23:53;26.37;33.16